Time;durP1;ratioP1;P1;durP2;ratioP2;P2;SDS_P1;SDS_P2;PMS_P1;PMS_P2;Temp;Humidity;BMP_temperature;BMP_pressure;BME280_temperature;BME280_humidity;BME280_pressure;Samples;Min_cycle;Max_cycle;Signal;HPM_P1;HPM_P2
2023/07/30 00:01:55;;;;;;;15.05;5.55;;;17.20;99.90;;;;;;5147114;27;20418;-80
2023/07/30 00:04:21;;;;;;;17.08;4.75;;;17.20;99.90;;;;;;5134372;27;20478;-80
2023/07/30 00:06:47;;;;;;;15.88;4.72;;;17.20;99.90;;;;;;5152027;27;20042;-80
2023/07/30 00:09:12;;;;;;;14.15;4.53;;;17.20;99.90;;;;;;5148167;27;20050;-81
2023/07/30 00:11:38;;;;;;;16.65;5.10;;;17.10;99.90;;;;;;5150739;27;20042;-79
2023/07/30 00:14:04;;;;;;;17.45;5.50;;;17.10;99.90;;;;;;5145944;27;20273;-80
2023/07/30 00:16:29;;;;;;;19.10;5.15;;;17.00;99.90;;;;;;5150129;27;20549;-80
2023/07/30 00:18:56;;;;;;;19.92;5.40;;;16.90;99.90;;;;;;5129966;27;20114;-80
2023/07/30 00:21:22;;;;;;;15.80;4.65;;;16.90;99.90;;;;;;5155702;27;20955;-80
2023/07/30 00:23:47;;;;;;;16.40;4.50;;;16.90;99.90;;;;;;5149699;27;20042;-80
2023/07/30 00:26:13;;;;;;;14.30;5.32;;;16.90;99.90;;;;;;5152541;27;20034;-80
2023/07/30 00:28:38;;;;;;;13.88;5.35;;;16.80;99.90;;;;;;5131638;27;20045;-81
2023/07/30 00:31:04;;;;;;;15.88;5.20;;;16.80;99.90;;;;;;5147289;27;20065;-80
2023/07/30 00:33:29;;;;;;;11.82;4.32;;;16.80;99.90;;;;;;5132370;27;20052;-80
2023/07/30 00:35:55;;;;;;;19.55;5.20;;;16.80;99.90;;;;;;5150177;27;20042;-80
2023/07/30 00:38:20;;;;;;;15.10;4.50;;;16.70;99.90;;;;;;5152594;27;20095;-80
2023/07/30 00:40:46;;;;;;;16.45;5.15;;;16.80;99.90;;;;;;5127209;27;20591;-80
2023/07/30 00:43:11;;;;;;;14.82;4.70;;;16.90;99.90;;;;;;5147596;27;20502;-80
2023/07/30 00:45:40;;;;;;;16.42;4.75;;;16.80;99.90;;;;;;5147400;27;20031;-80
2023/07/30 00:48:05;;;;;;;11.07;4.45;;;16.80;99.90;;;;;;5154354;27;20039;-80
2023/07/30 00:50:32;;;;;;;13.48;4.50;;;16.70;99.90;;;;;;5148196;27;20035;-80
2023/07/30 00:52:58;;;;;;;11.75;4.68;;;16.70;99.90;;;;;;5151080;27;20070;-80
2023/07/30 00:55:24;;;;;;;18.20;5.68;;;16.70;99.90;;;;;;5143170;27;20716;-79
2023/07/30 00:57:50;;;;;;;13.45;5.13;;;16.60;99.90;;;;;;5137843;27;20071;-80
2023/07/30 01:00:16;;;;;;;15.32;4.60;;;16.60;99.90;;;;;;5146493;27;20091;-79
2023/07/30 01:02:41;;;;;;;13.00;4.82;;;16.60;99.90;;;;;;5125530;27;20031;-81
2023/07/30 01:05:07;;;;;;;10.25;4.55;;;16.60;99.90;;;;;;5149766;27;20193;-80
2023/07/30 01:07:33;;;;;;;17.88;4.72;;;16.50;99.90;;;;;;5138465;27;20043;-80
2023/07/30 01:10:02;;;;;;;12.05;4.68;;;16.50;99.90;;;;;;5146529;27;20039;-79
2023/07/30 01:12:31;;;;;;;15.82;5.00;;;16.50;99.90;;;;;;5147953;27;20035;-79
2023/07/30 01:14:57;;;;;;;15.20;5.20;;;16.50;99.90;;;;;;5128405;27;20038;-79
2023/07/30 01:17:23;;;;;;;26.05;5.20;;;16.50;99.90;;;;;;5140913;27;20054;-78
2023/07/30 01:19:54;;;;;;;16.15;4.28;;;16.50;99.90;;;;;;5132361;27;20118;-79
2023/07/30 01:22:20;;;;;;;10.57;4.25;;;16.60;99.90;;;;;;5145208;27;20511;-79
2023/07/30 01:24:46;;;;;;;13.35;4.70;;;16.60;99.90;;;;;;5147191;27;20031;-79
2023/07/30 01:27:23;;;;;;;12.35;4.32;;;16.60;99.90;;;;;;5151294;27;20050;-80
2023/07/30 01:29:54;;;;;;;14.30;4.68;;;16.60;99.90;;;;;;5140337;27;20039;-79
2023/07/30 01:32:23;;;;;;;16.45;4.60;;;16.60;99.90;;;;;;5149499;27;20566;-78
2023/07/30 01:34:52;;;;;;;17.65;5.68;;;16.70;99.90;;;;;;5123402;27;20043;-79
2023/07/30 01:37:17;;;;;;;13.30;4.60;;;16.60;99.90;;;;;;5141324;27;20054;-79
2023/07/30 01:39:45;;;;;;;16.50;4.63;;;16.70;99.90;;;;;;5146737;27;20039;-78
2023/07/30 01:42:14;;;;;;;13.00;4.70;;;16.70;99.90;;;;;;5140268;27;20041;-78
2023/07/30 01:44:40;;;;;;;16.48;4.80;;;16.70;99.90;;;;;;5145072;27;20038;-79
2023/07/30 01:47:05;;;;;;;18.10;4.50;;;16.70;99.90;;;;;;5141403;27;20046;-79
2023/07/30 01:49:31;;;;;;;16.30;4.88;;;16.70;99.90;;;;;;5128328;27;20117;-79
2023/07/30 01:51:56;;;;;;;16.55;5.43;;;16.70;99.90;;;;;;5148356;27;20087;-79
2023/07/30 01:54:22;;;;;;;13.90;4.57;;;16.70;99.90;;;;;;5147987;27;20046;-80
2023/07/30 01:56:48;;;;;;;11.45;4.53;;;16.70;99.90;;;;;;5145850;27;20046;-79
2023/07/30 01:59:13;;;;;;;12.68;4.63;;;16.70;99.90;;;;;;5149628;27;20035;-79
2023/07/30 02:01:39;;;;;;;15.73;4.88;;;16.70;99.90;;;;;;5139602;27;20080;-79
2023/07/30 02:04:05;;;;;;;14.98;5.30;;;16.60;99.90;;;;;;5147070;27;20038;-79
2023/07/30 02:06:30;;;;;;;13.55;5.75;;;16.60;99.90;;;;;;5144283;27;20035;-79
2023/07/30 02:08:56;;;;;;;21.05;5.13;;;16.60;99.90;;;;;;5147851;27;20555;-79
2023/07/30 02:11:21;;;;;;;19.45;5.25;;;16.60;99.90;;;;;;5138651;27;20106;-79
2023/07/30 02:13:47;;;;;;;20.27;4.50;;;16.60;99.90;;;;;;5147503;27;20409;-78
2023/07/30 02:16:12;;;;;;;21.23;4.72;;;16.60;99.90;;;;;;5143170;27;20582;-80
2023/07/30 02:18:38;;;;;;;20.58;4.88;;;16.60;99.90;;;;;;5145289;27;20042;-80
2023/07/30 02:21:03;;;;;;;13.88;4.65;;;16.60;99.90;;;;;;5151427;27;20035;-80
2023/07/30 02:23:29;;;;;;;16.27;4.82;;;16.60;99.90;;;;;;5143908;27;20037;-80
2023/07/30 02:25:54;;;;;;;18.88;4.68;;;16.50;99.90;;;;;;5139576;27;20035;-80
2023/07/30 02:28:20;;;;;;;15.77;5.05;;;16.50;99.90;;;;;;5133761;27;20054;-79
2023/07/30 02:30:45;;;;;;;18.20;4.65;;;16.50;99.90;;;;;;5147828;27;20035;-79
2023/07/30 02:33:11;;;;;;;17.08;4.93;;;16.50;99.90;;;;;;5143409;27;20137;-80
2023/07/30 02:35:36;;;;;;;17.55;4.43;;;16.50;99.90;;;;;;5135370;27;20042;-80
2023/07/30 02:38:03;;;;;;;18.80;4.90;;;16.50;99.90;;;;;;5133985;27;20050;-80
2023/07/30 02:40:28;;;;;;;15.77;4.25;;;16.50;99.90;;;;;;5148380;27;20113;-80
2023/07/30 02:42:54;;;;;;;17.25;4.35;;;16.50;99.90;;;;;;5125185;27;20038;-81
2023/07/30 02:45:19;;;;;;;14.50;4.30;;;16.40;99.90;;;;;;5148834;27;20445;-80
2023/07/30 02:47:45;;;;;;;18.98;5.18;;;16.40;99.90;;;;;;5155703;27;20038;-80
2023/07/30 02:50:10;;;;;;;19.90;4.28;;;16.40;99.90;;;;;;5151482;27;20039;-80
2023/07/30 02:52:36;;;;;;;14.75;4.20;;;16.40;99.90;;;;;;5147278;27;20034;-80
2023/07/30 02:55:02;;;;;;;13.60;4.18;;;16.40;99.90;;;;;;5138492;27;20045;-79
2023/07/30 02:57:27;;;;;;;14.60;4.25;;;16.40;99.90;;;;;;5132256;27;20039;-79
2023/07/30 02:59:53;;;;;;;16.50;4.55;;;16.40;99.90;;;;;;5149771;27;20110;-81
2023/07/30 03:02:19;;;;;;;19.33;4.97;;;16.40;99.90;;;;;;5142560;27;20031;-80
2023/07/30 03:04:44;;;;;;;14.23;5.35;;;16.40;99.90;;;;;;5148237;27;20524;-80
2023/07/30 03:07:10;;;;;;;14.35;4.28;;;16.30;99.90;;;;;;5147568;27;20397;-80
2023/07/30 03:09:35;;;;;;;19.25;4.80;;;16.30;99.90;;;;;;5148047;27;20126;-80
2023/07/30 03:12:02;;;;;;;21.33;5.28;;;16.30;99.90;;;;;;5146022;27;20049;-81
2023/07/30 03:14:27;;;;;;;18.80;4.65;;;16.20;99.90;;;;;;5153197;27;20041;-80
2023/07/30 03:16:53;;;;;;;16.00;4.22;;;16.20;99.90;;;;;;5153890;27;20137;-79
2023/07/30 03:19:18;;;;;;;17.70;3.95;;;16.20;99.90;;;;;;5142668;27;20035;-79
2023/07/30 03:21:44;;;;;;;19.27;4.80;;;16.20;99.90;;;;;;5149480;27;20467;-80
2023/07/30 03:24:09;;;;;;;19.08;5.13;;;16.10;99.90;;;;;;5131519;27;20445;-80
2023/07/30 03:26:35;;;;;;;18.90;4.18;;;16.10;99.90;;;;;;5150908;27;20586;-80
2023/07/30 03:29:00;;;;;;;15.38;3.92;;;16.10;99.90;;;;;;5152868;27;20076;-80
2023/07/30 03:31:28;;;;;;;16.05;4.30;;;16.10;99.90;;;;;;5152096;27;20030;-79
2023/07/30 03:33:53;;;;;;;19.80;4.25;;;16.00;99.90;;;;;;5149621;27;20109;-80
2023/07/30 03:36:19;;;;;;;17.58;4.22;;;16.00;99.90;;;;;;5135791;27;20110;-80
2023/07/30 03:38:45;;;;;;;17.45;4.28;;;16.00;99.90;;;;;;5131363;27;20126;-79
2023/07/30 03:41:11;;;;;;;18.80;4.30;;;16.00;99.90;;;;;;5150494;27;20413;-80
2023/07/30 03:43:36;;;;;;;15.82;4.07;;;15.90;99.90;;;;;;5144599;27;20485;-80
2023/07/30 03:46:02;;;;;;;15.63;4.80;;;15.90;99.90;;;;;;5149699;27;20046;-81
2023/07/30 03:48:28;;;;;;;13.95;4.05;;;15.90;99.90;;;;;;5150890;27;20037;-79
2023/07/30 03:50:54;;;;;;;18.13;3.67;;;15.90;99.90;;;;;;5144010;27;20066;-79
2023/07/30 03:53:20;;;;;;;18.33;4.28;;;15.90;99.90;;;;;;5152114;27;20035;-80
2023/07/30 03:55:46;;;;;;;24.13;4.60;;;15.90;99.90;;;;;;5150541;27;20416;-80
2023/07/30 03:58:11;;;;;;;14.98;3.97;;;15.90;99.90;;;;;;5147396;27;20178;-80
2023/07/30 04:00:37;;;;;;;15.75;4.55;;;15.90;99.90;;;;;;5167224;27;20027;-80
2023/07/30 04:03:03;;;;;;;16.13;4.30;;;15.90;99.90;;;;;;5135610;27;20049;-80
2023/07/30 04:05:29;;;;;;;16.88;4.15;;;15.80;99.90;;;;;;5139768;27;20031;-80
2023/07/30 04:07:55;;;;;;;16.48;4.32;;;15.90;99.90;;;;;;5144369;27;20099;-80
2023/07/30 04:10:20;;;;;;;15.18;4.15;;;15.80;99.90;;;;;;5142247;27;20047;-81
2023/07/30 04:12:46;;;;;;;17.70;4.20;;;15.80;99.90;;;;;;5146564;27;20034;-79
2023/07/30 04:15:12;;;;;;;12.82;3.75;;;15.80;99.90;;;;;;5153234;27;20035;-80
2023/07/30 04:17:38;;;;;;;13.57;4.10;;;15.80;99.90;;;;;;5149460;27;20031;-80
2023/07/30 04:20:04;;;;;;;16.80;4.35;;;15.80;99.90;;;;;;5144319;27;20049;-80
2023/07/30 04:22:30;;;;;;;15.32;3.95;;;15.80;99.90;;;;;;5144012;27;20034;-80
2023/07/30 04:24:56;;;;;;;16.55;3.85;;;15.80;99.90;;;;;;5145774;27;20034;-80
2023/07/30 04:27:21;;;;;;;16.30;4.28;;;15.80;99.90;;;;;;5152595;27;20031;-80
2023/07/30 04:29:47;;;;;;;14.85;3.83;;;16.00;99.90;;;;;;5133474;27;20034;-79
2023/07/30 04:32:12;;;;;;;14.25;4.28;;;15.80;99.90;;;;;;5149001;27;20042;-81
2023/07/30 04:34:38;;;;;;;16.58;4.03;;;15.90;99.90;;;;;;5140951;27;20089;-80
2023/07/30 04:37:04;;;;;;;17.85;4.50;;;15.90;99.90;;;;;;5151529;27;20465;-80
2023/07/30 04:39:33;;;;;;;11.73;3.85;;;16.00;99.90;;;;;;5153844;27;20031;-80
2023/07/30 04:41:58;;;;;;;19.08;4.68;;;16.00;99.90;;;;;;5157843;27;20045;-80
2023/07/30 04:44:24;;;;;;;16.00;3.83;;;16.10;99.90;;;;;;5157477;27;20401;-80
2023/07/30 04:46:49;;;;;;;12.13;3.28;;;16.00;99.90;;;;;;5154522;27;20107;-80
2023/07/30 04:49:15;;;;;;;17.13;4.05;;;16.10;99.90;;;;;;5145849;27;20113;-80
2023/07/30 04:51:41;;;;;;;16.40;4.03;;;16.10;99.90;;;;;;5145625;27;20029;-81
2023/07/30 04:54:06;;;;;;;22.10;4.68;;;16.20;99.90;;;;;;5146387;27;20513;-80
2023/07/30 04:56:32;;;;;;;16.08;3.65;;;16.10;99.90;;;;;;5152069;27;20034;-80
2023/07/30 04:58:57;;;;;;;17.55;3.97;;;16.20;99.90;;;;;;5152005;27;20040;-79
2023/07/30 05:01:24;;;;;;;15.10;3.80;;;16.30;99.90;;;;;;5147777;27;20039;-81
2023/07/30 05:03:50;;;;;;;14.25;4.00;;;16.30;99.90;;;;;;5140309;27;20060;-80
2023/07/30 05:06:16;;;;;;;18.52;4.10;;;16.40;99.90;;;;;;5155394;27;20039;-80
2023/07/30 05:08:41;;;;;;;16.58;4.43;;;16.40;99.90;;;;;;5149037;27;20058;-80
2023/07/30 05:11:07;;;;;;;17.73;4.22;;;16.40;99.90;;;;;;5149986;27;20058;-80
2023/07/30 05:13:32;;;;;;;14.95;4.05;;;16.40;99.90;;;;;;5146158;27;20497;-80
2023/07/30 05:15:58;;;;;;;12.05;3.50;;;16.50;99.90;;;;;;5153169;27;20035;-80
2023/07/30 05:18:24;;;;;;;14.20;4.00;;;16.50;99.90;;;;;;5151097;27;20087;-81
2023/07/30 05:20:49;;;;;;;15.45;4.07;;;16.50;99.90;;;;;;5151426;27;20066;-81
2023/07/30 05:23:15;;;;;;;13.50;3.83;;;16.50;99.90;;;;;;5150799;27;20031;-80
2023/07/30 05:25:40;;;;;;;14.18;3.78;;;16.50;99.90;;;;;;5145787;27;20435;-80
2023/07/30 05:28:06;;;;;;;17.52;3.00;;;16.60;99.90;;;;;;5151356;27;20401;-80
2023/07/30 05:30:33;;;;;;;13.65;3.80;;;16.60;99.90;;;;;;5147616;27;20070;-80
2023/07/30 05:32:58;;;;;;;16.42;3.78;;;16.70;99.90;;;;;;5141608;27;20528;-80
2023/07/30 05:35:24;;;;;;;13.68;3.50;;;16.70;99.90;;;;;;5149624;27;20047;-80
2023/07/30 05:37:49;;;;;;;16.15;4.05;;;16.80;99.90;;;;;;5151755;27;20055;-80
2023/07/30 05:40:15;;;;;;;12.15;4.05;;;16.80;99.90;;;;;;5149968;27;20035;-80
2023/07/30 05:42:40;;;;;;;16.15;3.50;;;17.00;99.90;;;;;;5148667;27;20084;-80
2023/07/30 05:45:07;;;;;;;14.00;3.25;;;17.00;99.90;;;;;;5148557;27;20413;-81
2023/07/30 05:47:32;;;;;;;16.15;4.28;;;17.10;99.90;;;;;;5146538;27;20058;-81
2023/07/30 05:49:58;;;;;;;16.13;3.50;;;17.10;99.90;;;;;;5144828;27;20031;-81
2023/07/30 05:52:24;;;;;;;11.80;3.55;;;17.20;99.90;;;;;;5146647;27;20039;-79
2023/07/30 05:54:49;;;;;;;14.18;3.38;;;17.20;99.90;;;;;;5153572;27;20035;-80
2023/07/30 05:57:15;;;;;;;12.70;3.20;;;17.20;99.90;;;;;;5145128;27;20118;-80
2023/07/30 05:59:40;;;;;;;12.07;3.70;;;17.20;99.90;;;;;;5146019;27;20113;-81
2023/07/30 06:02:06;;;;;;;12.25;3.50;;;17.30;99.90;;;;;;5147346;27;20030;-80
2023/07/30 06:04:32;;;;;;;10.85;3.42;;;17.30;99.90;;;;;;5145820;27;20106;-80
2023/07/30 06:07:03;;;;;;;19.75;3.67;;;17.30;99.90;;;;;;5147503;27;20065;-80
2023/07/30 06:09:29;;;;;;;14.00;3.13;;;17.40;99.90;;;;;;5152764;27;20034;-81
2023/07/30 06:11:57;;;;;;;16.58;3.38;;;17.40;99.90;;;;;;5145588;27;20043;-81
2023/07/30 06:14:22;;;;;;;11.80;3.08;;;17.40;99.90;;;;;;5153399;27;20038;-80
2023/07/30 06:16:48;;;;;;;18.05;3.55;;;17.50;99.90;;;;;;5146409;27;20045;-79
2023/07/30 06:19:13;;;;;;;12.48;3.20;;;17.50;99.90;;;;;;5144594;27;20027;-80
2023/07/30 06:21:39;;;;;;;12.25;3.13;;;17.50;99.90;;;;;;5150755;27;20085;-80
2023/07/30 06:24:04;;;;;;;15.93;3.38;;;17.50;99.90;;;;;;5153568;27;20060;-80
2023/07/30 06:26:30;;;;;;;15.90;3.33;;;17.50;99.90;;;;;;5155296;27;20039;-79
2023/07/30 06:28:56;;;;;;;15.80;3.15;;;17.50;99.90;;;;;;5148410;27;20122;-79
2023/07/30 06:31:21;;;;;;;14.40;3.08;;;17.50;99.90;;;;;;5131702;27;20031;-80
2023/07/30 06:33:47;;;;;;;13.57;3.55;;;17.60;99.90;;;;;;5144502;27;20031;-80
2023/07/30 06:36:12;;;;;;;12.63;3.58;;;17.60;99.90;;;;;;5146351;27;20466;-79
2023/07/30 06:38:38;;;;;;;15.02;3.58;;;17.70;99.90;;;;;;5123080;27;20447;-80
2023/07/30 06:41:03;;;;;;;12.23;3.05;;;17.80;99.90;;;;;;5147315;27;20064;-80
2023/07/30 06:43:29;;;;;;;11.55;3.33;;;17.90;99.90;;;;;;5152155;27;20035;-80
2023/07/30 06:45:54;;;;;;;12.43;3.58;;;18.00;99.90;;;;;;5149122;27;20109;-80
2023/07/30 06:48:20;;;;;;;10.20;3.20;;;18.10;99.90;;;;;;5151542;27;20034;-79
2023/07/30 06:50:45;;;;;;;15.70;3.17;;;18.10;99.90;;;;;;5141113;27;21764;-80
2023/07/30 06:53:11;;;;;;;13.15;3.20;;;18.10;99.90;;;;;;5145874;27;20047;-80
2023/07/30 06:55:37;;;;;;;13.65;3.17;;;18.10;99.90;;;;;;5151610;27;20042;-80
2023/07/30 06:58:02;;;;;;;14.02;3.38;;;18.10;99.90;;;;;;5151438;27;20046;-79
2023/07/30 07:00:28;;;;;;;12.07;3.13;;;18.10;99.90;;;;;;5145487;27;20035;-80
2023/07/30 07:02:53;;;;;;;14.52;3.38;;;18.30;99.90;;;;;;5134422;27;20096;-80
2023/07/30 07:05:19;;;;;;;13.63;3.28;;;18.40;99.90;;;;;;5135325;27;20035;-80
2023/07/30 07:07:45;;;;;;;11.93;3.08;;;18.50;99.90;;;;;;5136279;27;20047;-80
2023/07/30 07:10:11;;;;;;;16.85;2.80;;;18.50;99.90;;;;;;5132413;27;20042;-80
2023/07/30 07:12:38;;;;;;;9.00;2.72;;;18.60;99.90;;;;;;5133523;27;20042;-80
2023/07/30 07:15:04;;;;;;;12.85;3.15;;;18.50;99.90;;;;;;5142873;27;20041;-81
2023/07/30 07:17:30;;;;;;;8.88;2.30;;;18.50;99.90;;;;;;5139363;27;20038;-80
2023/07/30 07:19:56;;;;;;;11.60;2.53;;;18.50;99.90;;;;;;5144950;27;20519;-80
2023/07/30 07:22:22;;;;;;;8.20;2.78;;;18.50;99.90;;;;;;5147878;27;20497;-79
2023/07/30 07:24:47;;;;;;;10.35;2.72;;;18.40;99.90;;;;;;5143315;27;20110;-81
2023/07/30 07:27:13;;;;;;;9.48;2.50;;;18.40;99.90;;;;;;5145572;27;20193;-79
2023/07/30 07:29:39;;;;;;;11.95;2.75;;;18.60;99.90;;;;;;5145982;27;20046;-79
2023/07/30 07:32:05;;;;;;;15.45;2.40;;;18.90;99.90;;;;;;5150937;27;20516;-79
2023/07/30 07:34:30;;;;;;;12.10;2.60;;;19.20;99.90;;;;;;5146142;27;20052;-79
2023/07/30 07:36:59;;;;;;;11.07;2.42;;;19.40;99.90;;;;;;5149192;27;20459;-79
2023/07/30 07:39:24;;;;;;;12.85;2.78;;;19.60;99.90;;;;;;5152589;27;20040;-80
2023/07/30 07:41:50;;;;;;;13.52;2.42;;;19.80;99.90;;;;;;5152517;27;20041;-80
2023/07/30 07:44:15;;;;;;;11.00;2.42;;;20.10;99.90;;;;;;5142042;27;20030;-79
2023/07/30 07:46:41;;;;;;;11.13;2.10;;;20.40;99.90;;;;;;5127304;28;20091;-79
2023/07/30 07:49:08;;;;;;;9.52;1.85;;;20.70;99.90;;;;;;5136662;27;20114;-79
2023/07/30 07:51:34;;;;;;;11.75;2.17;;;20.80;99.90;;;;;;5138412;27;20039;-79
2023/07/30 07:53:59;;;;;;;8.38;1.75;;;20.70;99.90;;;;;;5154972;27;20043;-80
2023/07/30 07:56:25;;;;;;;9.40;2.17;;;20.50;99.90;;;;;;5146947;27;20484;-80
2023/07/30 07:58:50;;;;;;;9.90;2.22;;;20.10;99.90;;;;;;5148587;27;20035;-79
2023/07/30 08:01:16;;;;;;;8.95;2.17;;;19.80;99.90;;;;;;5148584;27;20034;-79
2023/07/30 08:03:41;;;;;;;13.02;2.10;;;19.70;99.90;;;;;;5144519;27;20034;-80
2023/07/30 08:06:07;;;;;;;7.97;1.70;;;19.50;99.90;;;;;;5146836;27;20145;-79
2023/07/30 08:08:32;;;;;;;8.65;1.67;;;19.30;99.90;;;;;;5141553;27;20090;-80
2023/07/30 08:10:58;;;;;;;12.23;1.80;;;19.20;99.90;;;;;;5143536;27;20050;-80
2023/07/30 08:13:24;;;;;;;12.20;2.25;;;19.10;99.90;;;;;;5152353;27;20043;-80
2023/07/30 08:15:49;;;;;;;16.63;2.47;;;19.00;99.90;;;;;;5145120;27;20442;-80
2023/07/30 08:18:15;;;;;;;6.45;1.70;;;18.80;99.90;;;;;;5150910;27;20088;-79
2023/07/30 08:20:40;;;;;;;9.05;2.28;;;18.80;99.90;;;;;;5158324;27;20067;-80
2023/07/30 08:23:06;;;;;;;10.40;2.05;;;18.80;99.90;;;;;;5157984;27;20030;-79
2023/07/30 08:25:32;;;;;;;7.43;1.67;;;18.80;99.90;;;;;;5143196;27;20056;-81
2023/07/30 08:27:58;;;;;;;6.80;1.70;;;18.80;99.90;;;;;;5142609;27;20035;-79
2023/07/30 08:30:23;;;;;;;9.82;1.88;;;18.80;99.90;;;;;;5152056;27;20519;-80
2023/07/30 08:32:49;;;;;;;8.25;1.63;;;18.80;99.90;;;;;;5138356;27;20382;-80
2023/07/30 08:35:14;;;;;;;9.38;2.05;;;18.90;99.90;;;;;;5147464;27;20103;-80
2023/07/30 08:37:40;;;;;;;7.68;1.77;;;18.80;99.90;;;;;;5151241;27;20065;-80
2023/07/30 08:40:06;;;;;;;8.70;1.77;;;18.80;99.90;;;;;;5150183;27;20046;-80
2023/07/30 08:42:32;;;;;;;8.23;1.63;;;18.70;99.90;;;;;;5147891;27;20031;-80
2023/07/30 08:44:57;;;;;;;6.07;1.52;;;18.80;99.90;;;;;;5148387;27;20038;-80
2023/07/30 08:47:23;;;;;;;8.70;1.60;;;18.80;99.90;;;;;;5150709;27;20053;-80
2023/07/30 08:49:49;;;;;;;9.43;1.80;;;18.80;99.90;;;;;;5130633;27;20034;-80
2023/07/30 08:52:16;;;;;;;8.27;2.22;;;19.00;99.90;;;;;;5155410;27;20039;-80
2023/07/30 08:54:44;;;;;;;9.02;2.17;;;19.10;99.90;;;;;;5153125;27;20448;-80
2023/07/30 08:57:10;;;;;;;5.53;1.70;;;19.30;99.90;;;;;;5157661;27;20049;-80
2023/07/30 09:00:00;;;;;;;6.57;1.55;;;19.30;99.90;;;;;;5153942;27;20031;-79
2023/07/30 09:02:54;;;;;;;8.63;1.55;;;19.50;99.90;;;;;;5150419;27;20031;-79
2023/07/30 09:05:20;;;;;;;9.57;1.83;;;19.70;99.90;;;;;;5156348;27;20386;-80
2023/07/30 09:07:46;;;;;;;9.18;1.80;;;20.00;99.90;;;;;;5144948;27;20035;-80
2023/07/30 09:10:13;;;;;;;5.95;1.73;;;20.20;99.90;;;;;;5155195;27;20045;-80
2023/07/30 09:12:38;;;;;;;7.68;1.58;;;20.30;99.90;;;;;;5155094;27;20035;-80
2023/07/30 09:15:05;;;;;;;7.35;2.00;;;20.10;99.90;;;;;;5136067;27;20042;-81
2023/07/30 09:17:32;;;;;;;9.48;2.00;;;20.00;99.90;;;;;;5141592;27;20039;-79
2023/07/30 09:20:03;;;;;;;8.50;1.70;;;19.80;99.90;;;;;;5157171;27;20038;-80
2023/07/30 09:22:30;;;;;;;8.27;1.95;;;19.70;99.90;;;;;;5159670;27;20046;-79
2023/07/30 09:24:57;;;;;;;9.02;1.77;;;19.60;99.90;;;;;;5149604;27;20027;-80
2023/07/30 09:27:26;;;;;;;6.88;1.88;;;19.50;99.90;;;;;;5159624;27;20038;-80
2023/07/30 09:29:55;;;;;;;10.93;2.05;;;19.40;99.90;;;;;;5159588;27;20034;-79
2023/07/30 09:32:26;;;;;;;9.38;1.92;;;19.40;99.90;;;;;;5157342;27;20032;-80
2023/07/30 09:34:51;;;;;;;5.80;1.80;;;19.50;99.90;;;;;;5157067;27;20070;-79
2023/07/30 09:37:17;;;;;;;6.40;1.70;;;19.40;99.90;;;;;;5154963;27;20054;-80
2023/07/30 09:39:43;;;;;;;7.70;1.70;;;19.40;99.90;;;;;;5127102;27;20034;-80
2023/07/30 09:42:09;;;;;;;5.38;1.55;;;19.30;99.90;;;;;;5157346;27;20058;-79
2023/07/30 09:44:38;;;;;;;4.68;1.48;;;19.30;99.90;;;;;;5149607;27;20046;-79
2023/07/30 09:47:05;;;;;;;5.65;1.33;;;19.40;99.90;;;;;;5154301;27;20027;-79
2023/07/30 09:49:31;;;;;;;8.02;1.98;;;19.50;99.90;;;;;;5140720;27;20035;-79
2023/07/30 09:51:58;;;;;;;7.20;1.52;;;19.50;99.90;;;;;;5149463;27;20042;-80
2023/07/30 09:54:23;;;;;;;5.32;1.33;;;19.60;99.90;;;;;;5151263;27;20126;-80
2023/07/30 09:56:49;;;;;;;6.57;1.23;;;19.70;99.90;;;;;;5154467;27;20062;-80
2023/07/30 09:59:15;;;;;;;4.60;1.38;;;19.80;99.90;;;;;;5147498;27;20072;-80
2023/07/30 10:01:47;;;;;;;5.05;1.52;;;19.90;99.90;;;;;;5143933;27;20042;-80
2023/07/30 10:04:13;;;;;;;4.70;1.27;;;19.80;99.90;;;;;;5147834;27;20088;-80
2023/07/30 10:06:47;;;;;;;4.20;1.10;;;19.70;99.90;;;;;;5146929;27;20030;-79
2023/07/30 10:09:16;;;;;;;3.67;1.00;;;19.60;99.90;;;;;;5134996;27;20039;-79
2023/07/30 10:11:44;;;;;;;4.90;1.20;;;19.50;99.90;;;;;;5146091;27;20066;-79
2023/07/30 10:14:11;;;;;;;3.67;1.48;;;19.40;99.90;;;;;;5151772;27;20035;-82
2023/07/30 10:16:36;;;;;;;3.88;1.20;;;19.30;99.90;;;;;;5149810;27;20038;-79
2023/07/30 10:19:02;;;;;;;5.35;1.20;;;19.40;99.90;;;;;;5157965;27;20047;-80
2023/07/30 10:21:31;;;;;;;2.90;1.10;;;19.50;99.90;;;;;;5144797;27;20490;-80
2023/07/30 10:24:02;;;;;;;4.68;1.50;;;19.70;99.90;;;;;;5151746;27;20088;-81
2023/07/30 10:26:29;;;;;;;6.45;1.30;;;20.00;99.90;;;;;;5124243;27;20035;-80
2023/07/30 10:29:18;;;;;;;4.72;1.17;;;20.30;99.90;;;;;;5141764;27;20036;-80
2023/07/30 10:31:53;;;;;;;7.25;1.70;;;20.40;99.90;;;;;;5118330;27;20034;-79
2023/07/30 10:34:18;;;;;;;6.40;1.38;;;20.20;99.90;;;;;;5148925;27;20077;-80
2023/07/30 10:36:47;;;;;;;8.15;1.60;;;19.90;99.90;;;;;;5141806;27;20063;-80
2023/07/30 10:39:17;;;;;;;5.00;1.40;;;19.70;99.90;;;;;;5132974;27;20039;-79
2023/07/30 10:41:49;;;;;;;4.60;1.40;;;19.50;99.90;;;;;;5141619;27;20390;-78
2023/07/30 10:44:32;;;;;;;5.57;1.70;;;19.50;99.90;;;;;;5121076;27;20026;-80
2023/07/30 10:46:59;;;;;;;7.70;1.67;;;19.60;99.90;;;;;;5146791;27;20035;-79
2023/07/30 12:45:59;;;;;;;7.50;1.52;;;21.30;99.90;;;;;;4986781;28;20104;-78
2023/07/30 12:48:24;;;;;;;8.60;1.67;;;21.50;99.90;;;;;;4976852;28;20046;-78
2023/07/30 12:50:50;;;;;;;6.70;1.70;;;21.70;99.90;;;;;;4976463;28;20508;-78
2023/07/30 12:53:16;;;;;;;6.05;1.55;;;21.90;99.90;;;;;;4961249;28;20035;-78
2023/07/30 12:55:41;;;;;;;6.60;1.70;;;21.90;99.90;;;;;;5001712;28;20516;-79
2023/07/30 12:58:07;;;;;;;9.80;1.40;;;21.90;99.90;;;;;;4996073;28;20042;-79
2023/07/30 13:00:33;;;;;;;6.35;1.90;;;21.90;99.90;;;;;;4992338;28;20043;-78
2023/07/30 13:02:59;;;;;;;6.13;1.42;;;21.70;99.90;;;;;;4997061;28;20044;-79
2023/07/30 13:05:25;;;;;;;8.02;1.60;;;21.50;99.90;;;;;;4997689;28;20109;-78
2023/07/30 13:07:50;;;;;;;5.97;1.48;;;21.80;99.90;;;;;;4989856;28;20060;-78
2023/07/30 13:10:16;;;;;;;6.90;1.55;;;22.10;99.90;;;;;;4992431;28;20045;-78
2023/07/30 13:12:41;;;;;;;4.95;1.42;;;22.30;99.90;;;;;;4995138;28;20041;-78
2023/07/30 13:15:07;;;;;;;5.68;1.20;;;22.10;99.90;;;;;;4990167;28;20073;-78
2023/07/30 13:17:33;;;;;;;6.95;1.60;;;22.00;99.90;;;;;;4989860;28;20074;-77
2023/07/30 13:19:58;;;;;;;5.25;1.30;;;22.10;99.90;;;;;;4990744;28;20036;-78
2023/07/30 13:22:24;;;;;;;6.32;1.70;;;22.10;99.90;;;;;;4998028;28;20121;-79
2023/07/30 13:24:50;;;;;;;6.13;1.50;;;22.00;99.90;;;;;;4999454;28;20116;-79
2023/07/30 13:27:17;;;;;;;4.82;1.30;;;22.10;99.90;;;;;;4999581;28;20061;-79
2023/07/30 13:29:42;;;;;;;8.48;1.73;;;22.20;99.90;;;;;;4990759;28;20065;-79
2023/07/30 13:32:08;;;;;;;6.30;1.30;;;22.10;99.90;;;;;;4983123;28;20045;-80
2023/07/30 13:34:34;;;;;;;6.68;1.50;;;22.40;99.90;;;;;;4995545;28;20100;-79
2023/07/30 13:36:59;;;;;;;7.30;1.30;;;22.60;99.90;;;;;;4970166;28;20049;-78
2023/07/30 13:39:25;;;;;;;7.10;1.73;;;22.50;99.90;;;;;;4978162;28;20044;-80
2023/07/30 13:41:51;;;;;;;6.55;1.45;;;22.50;99.90;;;;;;4997002;28;20550;-80
2023/07/30 13:44:16;;;;;;;10.10;1.45;;;22.50;99.90;;;;;;4982117;28;20092;-80
2023/07/30 13:46:42;;;;;;;6.93;1.85;;;22.70;99.90;;;;;;4997051;28;20477;-79
2023/07/30 13:49:07;;;;;;;6.43;1.50;;;22.90;99.90;;;;;;4989196;28;20416;-78
2023/07/30 13:51:33;;;;;;;6.75;1.70;;;22.40;99.90;;;;;;4978344;28;20488;-78
2023/07/30 13:53:59;;;;;;;7.13;1.27;;;22.20;99.90;;;;;;4972230;28;20041;-79
2023/07/30 13:56:29;;;;;;;5.95;1.60;;;22.10;99.90;;;;;;4994727;28;20204;-79
2023/07/30 13:58:55;;;;;;;5.30;1.25;;;22.10;99.90;;;;;;4979520;28;20056;-79
2023/07/30 14:01:20;;;;;;;5.05;1.27;;;22.10;99.90;;;;;;4979743;28;20490;-80
2023/07/30 14:03:46;;;;;;;6.65;1.75;;;22.40;99.90;;;;;;4985414;28;20040;-78
2023/07/30 14:06:12;;;;;;;7.30;1.50;;;22.50;99.90;;;;;;4978534;28;20038;-78
2023/07/30 14:08:38;;;;;;;5.43;1.20;;;22.40;99.90;;;;;;4966067;28;20038;-78
2023/07/30 14:11:03;;;;;;;6.53;1.33;;;22.10;99.90;;;;;;4965952;28;20473;-79
2023/07/30 14:13:29;;;;;;;7.13;1.52;;;21.90;99.90;;;;;;4979477;28;20040;-78
2023/07/30 14:15:55;;;;;;;8.45;1.73;;;21.70;99.90;;;;;;4974536;28;20452;-78
2023/07/30 14:18:21;;;;;;;9.15;1.92;;;21.60;99.90;;;;;;4956741;28;20030;-77
2023/07/30 14:20:46;;;;;;;6.68;1.58;;;21.20;99.90;;;;;;4960974;28;20049;-77
2023/07/30 14:23:12;;;;;;;6.60;1.60;;;21.30;99.90;;;;;;4981037;28;20493;-77
2023/07/30 14:25:38;;;;;;;6.30;1.55;;;21.60;99.90;;;;;;4981040;28;20041;-76
2023/07/30 14:28:04;;;;;;;5.35;1.52;;;22.00;99.90;;;;;;4972290;28;20053;-76
2023/07/30 14:30:30;;;;;;;3.53;1.05;;;22.10;99.90;;;;;;4975051;28;20069;-75
2023/07/30 14:32:55;;;;;;;4.45;1.27;;;21.90;99.90;;;;;;4985502;28;20072;-76